sensor_id;sensor_type;location;lat;lon;timestamp;P1;durP1;ratioP1;P2;durP2;ratioP2
47337;SDS011;33069;51.970;5.892;2023-02-01T00:02:06;26.05;;;9.65;;
47337;SDS011;33069;51.970;5.892;2023-02-01T00:04:31;36.38;;;9.43;;
47337;SDS011;33069;51.970;5.892;2023-02-01T00:06:57;23.50;;;8.85;;
47337;SDS011;33069;51.970;5.892;2023-02-01T00:09:23;27.48;;;9.20;;
47337;SDS011;33069;51.970;5.892;2023-02-01T00:11:48;21.17;;;9.30;;
47337;SDS011;33069;51.970;5.892;2023-02-01T00:14:14;31.88;;;9.50;;
47337;SDS011;33069;51.970;5.892;2023-02-01T00:16:40;23.15;;;8.20;;
47337;SDS011;33069;51.970;5.892;2023-02-01T00:19:07;21.85;;;9.43;;
47337;SDS011;33069;51.970;5.892;2023-02-01T00:21:36;29.08;;;8.90;;
47337;SDS011;33069;51.970;5.892;2023-02-01T00:24:02;26.25;;;9.23;;
47337;SDS011;33069;51.970;5.892;2023-02-01T00:26:35;28.20;;;8.60;;
47337;SDS011;33069;51.970;5.892;2023-02-01T00:29:04;19.60;;;8.05;;
47337;SDS011;33069;51.970;5.892;2023-02-01T00:31:41;26.05;;;9.23;;
47337;SDS011;33069;51.970;5.892;2023-02-01T00:34:07;29.10;;;8.93;;
47337;SDS011;33069;51.970;5.892;2023-02-01T00:36:35;27.45;;;9.80;;
47337;SDS011;33069;51.970;5.892;2023-02-01T00:39:00;28.42;;;9.45;;
47337;SDS011;33069;51.970;5.892;2023-02-01T00:41:26;27.70;;;9.32;;
47337;SDS011;33069;51.970;5.892;2023-02-01T00:43:52;22.15;;;8.88;;
47337;SDS011;33069;51.970;5.892;2023-02-01T00:46:18;20.48;;;7.75;;
47337;SDS011;33069;51.970;5.892;2023-02-01T00:48:44;24.90;;;8.60;;
47337;SDS011;33069;51.970;5.892;2023-02-01T00:51:15;28.08;;;8.30;;
47337;SDS011;33069;51.970;5.892;2023-02-01T00:53:42;32.33;;;8.27;;
47337;SDS011;33069;51.970;5.892;2023-02-01T00:56:08;27.40;;;8.38;;
47337;SDS011;33069;51.970;5.892;2023-02-01T00:58:35;26.38;;;8.90;;
47337;SDS011;33069;51.970;5.892;2023-02-01T01:03:34;31.17;;;8.85;;
47337;SDS011;33069;51.970;5.892;2023-02-01T01:06:03;28.45;;;7.80;;
47337;SDS011;33069;51.970;5.892;2023-02-01T01:08:34;23.98;;;8.98;;
47337;SDS011;33069;51.970;5.892;2023-02-01T01:11:04;31.80;;;8.48;;
47337;SDS011;33069;51.970;5.892;2023-02-01T01:13:31;33.25;;;6.70;;
47337;SDS011;33069;51.970;5.892;2023-02-01T01:15:59;27.90;;;6.70;;
47337;SDS011;33069;51.970;5.892;2023-02-01T01:18:27;28.17;;;7.18;;
47337;SDS011;33069;51.970;5.892;2023-02-01T01:20:55;21.60;;;5.53;;
47337;SDS011;33069;51.970;5.892;2023-02-01T01:23:21;21.70;;;5.10;;
47337;SDS011;33069;51.970;5.892;2023-02-01T01:25:47;33.15;;;5.88;;
47337;SDS011;33069;51.970;5.892;2023-02-01T01:28:12;26.77;;;6.75;;
47337;SDS011;33069;51.970;5.892;2023-02-01T01:30:38;30.08;;;5.65;;
47337;SDS011;33069;51.970;5.892;2023-02-01T01:33:04;27.85;;;5.90;;
47337;SDS011;33069;51.970;5.892;2023-02-01T01:35:30;19.92;;;7.25;;
47337;SDS011;33069;51.970;5.892;2023-02-01T01:37:57;31.70;;;6.40;;
47337;SDS011;33069;51.970;5.892;2023-02-01T01:40:24;25.92;;;6.07;;
47337;SDS011;33069;51.970;5.892;2023-02-01T01:42:50;29.45;;;6.65;;
47337;SDS011;33069;51.970;5.892;2023-02-01T01:45:26;25.13;;;5.65;;
47337;SDS011;33069;51.970;5.892;2023-02-01T01:47:56;29.25;;;6.22;;
47337;SDS011;33069;51.970;5.892;2023-02-01T01:50:26;30.38;;;6.75;;
47337;SDS011;33069;51.970;5.892;2023-02-01T01:52:55;31.27;;;7.30;;
47337;SDS011;33069;51.970;5.892;2023-02-01T01:55:24;22.05;;;5.20;;
47337;SDS011;33069;51.970;5.892;2023-02-01T01:57:57;37.30;;;5.60;;
47337;SDS011;33069;51.970;5.892;2023-02-01T02:00:31;15.68;;;5.00;;
47337;SDS011;33069;51.970;5.892;2023-02-01T02:03:03;27.73;;;6.82;;
47337;SDS011;33069;51.970;5.892;2023-02-01T02:05:40;32.13;;;6.53;;
47337;SDS011;33069;51.970;5.892;2023-02-01T02:08:25;31.48;;;6.68;;
47337;SDS011;33069;51.970;5.892;2023-02-01T02:10:52;32.72;;;6.15;;
47337;SDS011;33069;51.970;5.892;2023-02-01T02:13:28;33.67;;;5.70;;
47337;SDS011;33069;51.970;5.892;2023-02-01T02:16:04;24.63;;;6.75;;
47337;SDS011;33069;51.970;5.892;2023-02-01T02:19:03;30.20;;;7.47;;
47337;SDS011;33069;51.970;5.892;2023-02-01T02:21:35;25.50;;;6.82;;
47337;SDS011;33069;51.970;5.892;2023-02-01T02:27:54;26.67;;;6.30;;
47337;SDS011;33069;51.970;5.892;2023-02-01T02:30:24;23.95;;;5.63;;
47337;SDS011;33069;51.970;5.892;2023-02-01T02:41:06;19.30;;;4.85;;
47337;SDS011;33069;51.970;5.892;2023-02-01T02:43:58;25.08;;;5.60;;
47337;SDS011;33069;51.970;5.892;2023-02-01T02:46:49;28.90;;;6.20;;
47337;SDS011;33069;51.970;5.892;2023-02-01T02:49:40;20.17;;;5.53;;
47337;SDS011;33069;51.970;5.892;2023-02-01T02:52:34;36.67;;;6.05;;
47337;SDS011;33069;51.970;5.892;2023-02-01T02:55:24;25.15;;;5.97;;
47337;SDS011;33069;51.970;5.892;2023-02-01T02:57:52;22.95;;;5.43;;
47337;SDS011;33069;51.970;5.892;2023-02-01T03:00:39;24.17;;;5.05;;
47337;SDS011;33069;51.970;5.892;2023-02-01T03:03:25;26.73;;;5.90;;
47337;SDS011;33069;51.970;5.892;2023-02-01T03:06:13;19.90;;;5.30;;
47337;SDS011;33069;51.970;5.892;2023-02-01T03:08:51;27.85;;;6.47;;
47337;SDS011;33069;51.970;5.892;2023-02-01T03:11:22;30.08;;;5.30;;
47337;SDS011;33069;51.970;5.892;2023-02-01T03:14:09;28.38;;;5.88;;
47337;SDS011;33069;51.970;5.892;2023-02-01T03:16:41;30.13;;;6.07;;
47337;SDS011;33069;51.970;5.892;2023-02-01T03:19:27;17.35;;;5.20;;
47337;SDS011;33069;51.970;5.892;2023-02-01T03:22:10;26.77;;;5.15;;
47337;SDS011;33069;51.970;5.892;2023-02-01T03:24:41;22.35;;;5.13;;
47337;SDS011;33069;51.970;5.892;2023-02-01T03:27:23;26.95;;;5.32;;
47337;SDS011;33069;51.970;5.892;2023-02-01T03:32:31;20.63;;;5.63;;
47337;SDS011;33069;51.970;5.892;2023-02-01T03:35:18;26.48;;;4.97;;
47337;SDS011;33069;51.970;5.892;2023-02-01T03:37:52;30.83;;;5.30;;
47337;SDS011;33069;51.970;5.892;2023-02-01T03:40:41;29.05;;;6.38;;
47337;SDS011;33069;51.970;5.892;2023-02-01T03:43:10;37.83;;;6.40;;
47337;SDS011;33069;51.970;5.892;2023-02-01T03:45:50;29.27;;;6.30;;
47337;SDS011;33069;51.970;5.892;2023-02-01T03:48:22;28.77;;;6.40;;
47337;SDS011;33069;51.970;5.892;2023-02-01T03:50:49;25.55;;;5.35;;
47337;SDS011;33069;51.970;5.892;2023-02-01T03:53:20;29.85;;;5.93;;
47337;SDS011;33069;51.970;5.892;2023-02-01T03:55:48;28.85;;;6.28;;
47337;SDS011;33069;51.970;5.892;2023-02-01T03:58:17;31.77;;;5.78;;
47337;SDS011;33069;51.970;5.892;2023-02-01T04:00:46;25.15;;;5.30;;
47337;SDS011;33069;51.970;5.892;2023-02-01T04:03:19;23.25;;;5.72;;
47337;SDS011;33069;51.970;5.892;2023-02-01T04:05:46;35.58;;;6.70;;
47337;SDS011;33069;51.970;5.892;2023-02-01T04:08:16;21.00;;;6.13;;
47337;SDS011;33069;51.970;5.892;2023-02-01T04:10:43;32.25;;;6.15;;
47337;SDS011;33069;51.970;5.892;2023-02-01T04:13:09;26.90;;;5.47;;
47337;SDS011;33069;51.970;5.892;2023-02-01T04:15:34;40.95;;;5.68;;
47337;SDS011;33069;51.970;5.892;2023-02-01T04:18:00;28.52;;;6.32;;
47337;SDS011;33069;51.970;5.892;2023-02-01T04:20:26;25.60;;;5.70;;
47337;SDS011;33069;51.970;5.892;2023-02-01T04:22:52;38.72;;;5.93;;
47337;SDS011;33069;51.970;5.892;2023-02-01T04:25:18;30.40;;;6.90;;
47337;SDS011;33069;51.970;5.892;2023-02-01T04:27:44;37.00;;;6.40;;
47337;SDS011;33069;51.970;5.892;2023-02-01T04:30:10;32.97;;;6.72;;
47337;SDS011;33069;51.970;5.892;2023-02-01T04:32:36;30.75;;;6.53;;
47337;SDS011;33069;51.970;5.892;2023-02-01T04:35:03;36.08;;;5.85;;
47337;SDS011;33069;51.970;5.892;2023-02-01T04:37:29;26.85;;;6.40;;
47337;SDS011;33069;51.970;5.892;2023-02-01T04:39:55;37.63;;;7.18;;
47337;SDS011;33069;51.970;5.892;2023-02-01T04:42:21;35.08;;;6.50;;
47337;SDS011;33069;51.970;5.892;2023-02-01T04:44:46;33.17;;;7.15;;
47337;SDS011;33069;51.970;5.892;2023-02-01T04:47:12;31.83;;;8.80;;
47337;SDS011;33069;51.970;5.892;2023-02-01T04:49:39;33.85;;;9.38;;
47337;SDS011;33069;51.970;5.892;2023-02-01T04:52:05;29.27;;;8.70;;
47337;SDS011;33069;51.970;5.892;2023-02-01T04:54:31;26.80;;;8.23;;
47337;SDS011;33069;51.970;5.892;2023-02-01T04:56:56;31.02;;;7.75;;
47337;SDS011;33069;51.970;5.892;2023-02-01T04:59:22;39.60;;;8.85;;
47337;SDS011;33069;51.970;5.892;2023-02-01T05:01:48;30.17;;;7.93;;
47337;SDS011;33069;51.970;5.892;2023-02-01T05:04:13;25.17;;;8.85;;
47337;SDS011;33069;51.970;5.892;2023-02-01T05:06:39;25.23;;;9.23;;
47337;SDS011;33069;51.970;5.892;2023-02-01T05:09:05;23.75;;;8.52;;
47337;SDS011;33069;51.970;5.892;2023-02-01T05:11:30;27.38;;;7.93;;
47337;SDS011;33069;51.970;5.892;2023-02-01T05:14:14;33.55;;;9.10;;
47337;SDS011;33069;51.970;5.892;2023-02-01T05:16:40;27.95;;;8.98;;
47337;SDS011;33069;51.970;5.892;2023-02-01T05:19:06;27.90;;;9.18;;
47337;SDS011;33069;51.970;5.892;2023-02-01T05:21:31;22.08;;;9.15;;
47337;SDS011;33069;51.970;5.892;2023-02-01T05:23:57;32.25;;;10.00;;
47337;SDS011;33069;51.970;5.892;2023-02-01T05:26:35;33.22;;;9.10;;
47337;SDS011;33069;51.970;5.892;2023-02-01T05:29:02;29.13;;;8.93;;
47337;SDS011;33069;51.970;5.892;2023-02-01T05:31:29;28.20;;;9.30;;
47337;SDS011;33069;51.970;5.892;2023-02-01T05:33:55;34.05;;;9.73;;
47337;SDS011;33069;51.970;5.892;2023-02-01T05:36:21;36.35;;;9.45;;
47337;SDS011;33069;51.970;5.892;2023-02-01T05:38:47;27.85;;;9.73;;
47337;SDS011;33069;51.970;5.892;2023-02-01T05:41:12;36.92;;;11.15;;
47337;SDS011;33069;51.970;5.892;2023-02-01T05:43:38;26.45;;;10.77;;
47337;SDS011;33069;51.970;5.892;2023-02-01T05:46:04;28.10;;;9.52;;
47337;SDS011;33069;51.970;5.892;2023-02-01T05:48:30;30.27;;;10.00;;
47337;SDS011;33069;51.970;5.892;2023-02-01T05:50:55;27.95;;;10.68;;
47337;SDS011;33069;51.970;5.892;2023-02-01T05:53:21;28.45;;;9.02;;
47337;SDS011;33069;51.970;5.892;2023-02-01T05:55:47;27.95;;;8.32;;
47337;SDS011;33069;51.970;5.892;2023-02-01T05:58:13;29.90;;;9.13;;
47337;SDS011;33069;51.970;5.892;2023-02-01T06:00:39;23.55;;;8.43;;
47337;SDS011;33069;51.970;5.892;2023-02-01T06:03:05;29.52;;;9.20;;
47337;SDS011;33069;51.970;5.892;2023-02-01T06:05:31;27.73;;;8.77;;
47337;SDS011;33069;51.970;5.892;2023-02-01T06:07:57;23.10;;;8.73;;
47337;SDS011;33069;51.970;5.892;2023-02-01T06:10:23;28.45;;;9.63;;
47337;SDS011;33069;51.970;5.892;2023-02-01T06:12:49;28.23;;;9.27;;
47337;SDS011;33069;51.970;5.892;2023-02-01T06:15:15;30.20;;;8.60;;
47337;SDS011;33069;51.970;5.892;2023-02-01T06:17:41;27.80;;;9.70;;
47337;SDS011;33069;51.970;5.892;2023-02-01T06:20:09;27.52;;;10.27;;
47337;SDS011;33069;51.970;5.892;2023-02-01T06:22:36;30.13;;;11.02;;
47337;SDS011;33069;51.970;5.892;2023-02-01T06:25:06;28.23;;;11.75;;
47337;SDS011;33069;51.970;5.892;2023-02-01T06:27:33;24.83;;;9.85;;
47337;SDS011;33069;51.970;5.892;2023-02-01T06:29:59;33.25;;;10.43;;
47337;SDS011;33069;51.970;5.892;2023-02-01T06:32:25;23.73;;;9.32;;
47337;SDS011;33069;51.970;5.892;2023-02-01T06:34:50;23.63;;;9.73;;
47337;SDS011;33069;51.970;5.892;2023-02-01T06:37:20;27.63;;;10.88;;
47337;SDS011;33069;51.970;5.892;2023-02-01T06:39:46;27.70;;;10.88;;
47337;SDS011;33069;51.970;5.892;2023-02-01T06:42:11;29.60;;;11.00;;
47337;SDS011;33069;51.970;5.892;2023-02-01T06:44:37;21.77;;;10.48;;
47337;SDS011;33069;51.970;5.892;2023-02-01T06:47:03;29.75;;;10.95;;
47337;SDS011;33069;51.970;5.892;2023-02-01T06:49:29;30.48;;;10.40;;
47337;SDS011;33069;51.970;5.892;2023-02-01T06:51:55;22.83;;;10.63;;
47337;SDS011;33069;51.970;5.892;2023-02-01T06:54:21;23.50;;;11.30;;
47337;SDS011;33069;51.970;5.892;2023-02-01T06:56:47;33.53;;;11.20;;
47337;SDS011;33069;51.970;5.892;2023-02-01T06:59:13;29.85;;;10.90;;
47337;SDS011;33069;51.970;5.892;2023-02-01T07:01:39;28.90;;;8.38;;
47337;SDS011;33069;51.970;5.892;2023-02-01T07:04:04;25.50;;;10.60;;
47337;SDS011;33069;51.970;5.892;2023-02-01T07:06:30;25.23;;;9.25;;
47337;SDS011;33069;51.970;5.892;2023-02-01T07:08:56;35.45;;;12.25;;
47337;SDS011;33069;51.970;5.892;2023-02-01T07:11:22;29.60;;;9.55;;
47337;SDS011;33069;51.970;5.892;2023-02-01T07:13:48;32.60;;;10.48;;
47337;SDS011;33069;51.970;5.892;2023-02-01T07:16:15;37.38;;;12.50;;
47337;SDS011;33069;51.970;5.892;2023-02-01T07:18:43;39.22;;;9.40;;
47337;SDS011;33069;51.970;5.892;2023-02-01T07:21:09;27.20;;;9.63;;
47337;SDS011;33069;51.970;5.892;2023-02-01T07:23:35;24.48;;;10.57;;
47337;SDS011;33069;51.970;5.892;2023-02-01T07:26:02;26.25;;;7.55;;
47337;SDS011;33069;51.970;5.892;2023-02-01T07:28:31;27.00;;;10.75;;
47337;SDS011;33069;51.970;5.892;2023-02-01T07:31:05;28.23;;;7.43;;
47337;SDS011;33069;51.970;5.892;2023-02-01T07:33:36;30.27;;;9.20;;
47337;SDS011;33069;51.970;5.892;2023-02-01T07:36:03;25.90;;;9.38;;
47337;SDS011;33069;51.970;5.892;2023-02-01T07:38:30;35.45;;;8.80;;
47337;SDS011;33069;51.970;5.892;2023-02-01T07:40:59;30.02;;;8.20;;
47337;SDS011;33069;51.970;5.892;2023-02-01T07:46:59;29.55;;;8.25;;
47337;SDS011;33069;51.970;5.892;2023-02-01T07:49:25;28.83;;;7.65;;
47337;SDS011;33069;51.970;5.892;2023-02-01T07:51:50;25.73;;;7.68;;
47337;SDS011;33069;51.970;5.892;2023-02-01T07:54:16;26.40;;;7.95;;
47337;SDS011;33069;51.970;5.892;2023-02-01T07:56:42;37.05;;;10.15;;
47337;SDS011;33069;51.970;5.892;2023-02-01T07:59:07;38.97;;;9.05;;
47337;SDS011;33069;51.970;5.892;2023-02-01T08:01:33;33.55;;;9.30;;
47337;SDS011;33069;51.970;5.892;2023-02-01T08:04:00;17.25;;;6.93;;
47337;SDS011;33069;51.970;5.892;2023-02-01T08:06:28;27.60;;;7.82;;
47337;SDS011;33069;51.970;5.892;2023-02-01T08:08:56;18.40;;;7.25;;
47337;SDS011;33069;51.970;5.892;2023-02-01T08:11:22;29.70;;;8.40;;
47337;SDS011;33069;51.970;5.892;2023-02-01T08:13:49;34.40;;;9.25;;
47337;SDS011;33069;51.970;5.892;2023-02-01T08:16:15;32.95;;;8.32;;
47337;SDS011;33069;51.970;5.892;2023-02-01T08:18:42;34.63;;;8.13;;
47337;SDS011;33069;51.970;5.892;2023-02-01T08:21:13;29.45;;;7.32;;
47337;SDS011;33069;51.970;5.892;2023-02-01T08:23:44;28.15;;;9.05;;
47337;SDS011;33069;51.970;5.892;2023-02-01T08:26:20;34.88;;;9.00;;
47337;SDS011;33069;51.970;5.892;2023-02-01T08:28:55;22.75;;;6.65;;
47337;SDS011;33069;51.970;5.892;2023-02-01T08:31:23;29.00;;;9.23;;
47337;SDS011;33069;51.970;5.892;2023-02-01T08:33:51;27.90;;;9.95;;
47337;SDS011;33069;51.970;5.892;2023-02-01T08:36:22;25.95;;;8.57;;
47337;SDS011;33069;51.970;5.892;2023-02-01T08:41:34;26.63;;;7.07;;
47337;SDS011;33069;51.970;5.892;2023-02-01T08:43:59;30.50;;;7.60;;
47337;SDS011;33069;51.970;5.892;2023-02-01T08:46:25;29.85;;;12.82;;
47337;SDS011;33069;51.970;5.892;2023-02-01T08:48:52;21.25;;;7.65;;
47337;SDS011;33069;51.970;5.892;2023-02-01T08:51:18;24.58;;;10.85;;
47337;SDS011;33069;51.970;5.892;2023-02-01T08:53:46;27.90;;;11.38;;
47337;SDS011;33069;51.970;5.892;2023-02-01T08:56:12;21.60;;;11.13;;
47337;SDS011;33069;51.970;5.892;2023-02-01T08:58:39;25.80;;;12.18;;
47337;SDS011;33069;51.970;5.892;2023-02-01T09:01:06;29.35;;;12.10;;
47337;SDS011;33069;51.970;5.892;2023-02-01T09:03:34;28.13;;;11.70;;
47337;SDS011;33069;51.970;5.892;2023-02-01T09:06:03;35.00;;;10.70;;
47337;SDS011;33069;51.970;5.892;2023-02-01T09:08:32;24.40;;;11.50;;
47337;SDS011;33069;51.970;5.892;2023-02-01T09:11:02;39.03;;;12.43;;
47337;SDS011;33069;51.970;5.892;2023-02-01T09:13:29;27.27;;;10.77;;
47337;SDS011;33069;51.970;5.892;2023-02-01T09:15:56;30.00;;;9.25;;
47337;SDS011;33069;51.970;5.892;2023-02-01T09:18:22;25.30;;;11.30;;
47337;SDS011;33069;51.970;5.892;2023-02-01T09:20:47;26.67;;;11.60;;
47337;SDS011;33069;51.970;5.892;2023-02-01T09:23:13;27.65;;;10.52;;
47337;SDS011;33069;51.970;5.892;2023-02-01T09:25:39;23.70;;;9.32;;
47337;SDS011;33069;51.970;5.892;2023-02-01T09:28:05;27.23;;;11.98;;
47337;SDS011;33069;51.970;5.892;2023-02-01T09:30:32;26.65;;;11.38;;
47337;SDS011;33069;51.970;5.892;2023-02-01T09:32:58;22.10;;;12.43;;
47337;SDS011;33069;51.970;5.892;2023-02-01T09:35:24;29.30;;;10.98;;
47337;SDS011;33069;51.970;5.892;2023-02-01T09:37:51;31.50;;;12.05;;
47337;SDS011;33069;51.970;5.892;2023-02-01T09:40:18;27.35;;;12.50;;
47337;SDS011;33069;51.970;5.892;2023-02-01T09:45:18;25.05;;;15.07;;
47337;SDS011;33069;51.970;5.892;2023-02-01T09:48:00;31.23;;;12.50;;
47337;SDS011;33069;51.970;5.892;2023-02-01T09:50:35;24.25;;;12.57;;
47337;SDS011;33069;51.970;5.892;2023-02-01T09:53:04;27.98;;;12.52;;
47337;SDS011;33069;51.970;5.892;2023-02-01T09:58:31;30.38;;;14.73;;
47337;SDS011;33069;51.970;5.892;2023-02-01T10:01:01;21.67;;;12.57;;
47337;SDS011;33069;51.970;5.892;2023-02-01T10:03:29;24.58;;;13.70;;
47337;SDS011;33069;51.970;5.892;2023-02-01T10:17:25;22.55;;;12.13;;
47337;SDS011;33069;51.970;5.892;2023-02-01T10:22:50;34.55;;;13.43;;
47337;SDS011;33069;51.970;5.892;2023-02-01T10:25:23;26.15;;;13.60;;
47337;SDS011;33069;51.970;5.892;2023-02-01T10:27:51;39.33;;;13.27;;
47337;SDS011;33069;51.970;5.892;2023-02-01T10:30:19;25.92;;;9.65;;
47337;SDS011;33069;51.970;5.892;2023-02-01T10:32:52;22.50;;;10.30;;
47337;SDS011;33069;51.970;5.892;2023-02-01T10:35:22;27.27;;;8.48;;
47337;SDS011;33069;51.970;5.892;2023-02-01T10:37:52;28.88;;;8.18;;
47337;SDS011;33069;51.970;5.892;2023-02-01T10:40:19;25.42;;;7.88;;
47337;SDS011;33069;51.970;5.892;2023-02-01T10:42:52;29.38;;;8.80;;
47337;SDS011;33069;51.970;5.892;2023-02-01T10:45:22;33.58;;;8.25;;
47337;SDS011;33069;51.970;5.892;2023-02-01T10:47:51;28.05;;;7.53;;
47337;SDS011;33069;51.970;5.892;2023-02-01T10:53:44;26.58;;;7.28;;
47337;SDS011;33069;51.970;5.892;2023-02-01T10:56:10;37.53;;;7.85;;
47337;SDS011;33069;51.970;5.892;2023-02-01T10:58:43;30.05;;;6.93;;
47337;SDS011;33069;51.970;5.892;2023-02-01T11:01:20;32.20;;;7.57;;
47337;SDS011;33069;51.970;5.892;2023-02-01T11:03:53;25.23;;;5.95;;
47337;SDS011;33069;51.970;5.892;2023-02-01T11:06:34;26.73;;;6.78;;
47337;SDS011;33069;51.970;5.892;2023-02-01T11:14:17;24.25;;;7.95;;
47337;SDS011;33069;51.970;5.892;2023-02-01T11:16:51;27.52;;;10.10;;
47337;SDS011;33069;51.970;5.892;2023-02-01T11:19:19;22.50;;;8.18;;
47337;SDS011;33069;51.970;5.892;2023-02-01T11:21:48;29.65;;;8.48;;
47337;SDS011;33069;51.970;5.892;2023-02-01T11:24:20;24.40;;;8.93;;
47337;SDS011;33069;51.970;5.892;2023-02-01T11:26:49;30.30;;;10.45;;
47337;SDS011;33069;51.970;5.892;2023-02-01T11:29:17;30.80;;;11.38;;
47337;SDS011;33069;51.970;5.892;2023-02-01T11:31:54;25.10;;;10.40;;
47337;SDS011;33069;51.970;5.892;2023-02-01T11:37:34;34.30;;;11.25;;
47337;SDS011;33069;51.970;5.892;2023-02-01T11:40:18;31.63;;;9.63;;
47337;SDS011;33069;51.970;5.892;2023-02-01T11:43:11;22.98;;;7.80;;
47337;SDS011;33069;51.970;5.892;2023-02-01T11:45:53;30.48;;;9.60;;
47337;SDS011;33069;51.970;5.892;2023-02-01T11:48:27;24.90;;;7.72;;
47337;SDS011;33069;51.970;5.892;2023-02-01T11:56:13;28.70;;;10.23;;
47337;SDS011;33069;51.970;5.892;2023-02-01T12:10:00;36.78;;;12.85;;
47337;SDS011;33069;51.970;5.892;2023-02-01T12:15:46;22.98;;;9.88;;
47337;SDS011;33069;51.970;5.892;2023-02-01T12:18:56;24.00;;;8.13;;
47337;SDS011;33069;51.970;5.892;2023-02-01T12:21:36;35.17;;;14.13;;
47337;SDS011;33069;51.970;5.892;2023-02-01T12:29:31;27.80;;;13.52;;
47337;SDS011;33069;51.970;5.892;2023-02-01T12:32:08;18.48;;;12.27;;
47337;SDS011;33069;51.970;5.892;2023-02-01T12:37:29;27.75;;;14.15;;
47337;SDS011;33069;51.970;5.892;2023-02-01T12:40:24;28.90;;;14.88;;
47337;SDS011;33069;51.970;5.892;2023-02-01T12:43:03;32.35;;;14.18;;
47337;SDS011;33069;51.970;5.892;2023-02-01T12:45:52;31.40;;;15.07;;
47337;SDS011;33069;51.970;5.892;2023-02-01T12:48:36;24.63;;;13.60;;
47337;SDS011;33069;51.970;5.892;2023-02-01T12:51:18;30.13;;;13.95;;
47337;SDS011;33069;51.970;5.892;2023-02-01T12:53:51;28.48;;;14.98;;
47337;SDS011;33069;51.970;5.892;2023-02-01T12:56:26;31.40;;;14.48;;
47337;SDS011;33069;51.970;5.892;2023-02-01T12:59:03;27.88;;;14.82;;
47337;SDS011;33069;51.970;5.892;2023-02-01T13:01:38;29.48;;;13.95;;
47337;SDS011;33069;51.970;5.892;2023-02-01T13:06:51;31.08;;;14.05;;
47337;SDS011;33069;51.970;5.892;2023-02-01T13:09:29;28.75;;;14.93;;
47337;SDS011;33069;51.970;5.892;2023-02-01T13:12:13;21.70;;;14.70;;
47337;SDS011;33069;51.970;5.892;2023-02-01T13:15:17;29.05;;;15.13;;
47337;SDS011;33069;51.970;5.892;2023-02-01T13:17:44;28.70;;;14.75;;
47337;SDS011;33069;51.970;5.892;2023-02-01T13:20:25;19.52;;;13.50;;
47337;SDS011;33069;51.970;5.892;2023-02-01T13:23:29;29.15;;;15.70;;
47337;SDS011;33069;51.970;5.892;2023-02-01T13:25:55;31.77;;;13.20;;
47337;SDS011;33069;51.970;5.892;2023-02-01T13:28:40;27.02;;;17.20;;
47337;SDS011;33069;51.970;5.892;2023-02-01T13:34:17;25.25;;;14.07;;
47337;SDS011;33069;51.970;5.892;2023-02-01T13:37:28;21.60;;;14.38;;
47337;SDS011;33069;51.970;5.892;2023-02-01T13:43:00;31.55;;;15.77;;
47337;SDS011;33069;51.970;5.892;2023-02-01T13:45:32;29.42;;;14.80;;
47337;SDS011;33069;51.970;5.892;2023-02-01T13:48:03;42.03;;;17.10;;
47337;SDS011;33069;51.970;5.892;2023-02-01T13:53:23;24.05;;;15.60;;
47337;SDS011;33069;51.970;5.892;2023-02-01T13:58:30;29.38;;;15.48;;
47337;SDS011;33069;51.970;5.892;2023-02-01T14:03:54;27.33;;;15.32;;
47337;SDS011;33069;51.970;5.892;2023-02-01T14:11:55;29.25;;;14.18;;
47337;SDS011;33069;51.970;5.892;2023-02-01T14:19:21;35.05;;;15.07;;
47337;SDS011;33069;51.970;5.892;2023-02-01T14:24:36;19.63;;;13.75;;
47337;SDS011;33069;51.970;5.892;2023-02-01T14:27:07;26.35;;;14.73;;
47337;SDS011;33069;51.970;5.892;2023-02-01T14:29:44;30.25;;;15.32;;
47337;SDS011;33069;51.970;5.892;2023-02-01T14:32:24;19.73;;;14.27;;
47337;SDS011;33069;51.970;5.892;2023-02-01T14:35:01;25.83;;;14.18;;
47337;SDS011;33069;51.970;5.892;2023-02-01T14:37:32;26.95;;;15.23;;
47337;SDS011;33069;51.970;5.892;2023-02-01T14:40:02;28.52;;;15.52;;
47337;SDS011;33069;51.970;5.892;2023-02-01T14:55:44;30.13;;;12.77;;
47337;SDS011;33069;51.970;5.892;2023-02-01T14:58:29;21.60;;;14.30;;
47337;SDS011;33069;51.970;5.892;2023-02-01T15:01:24;25.55;;;14.73;;
47337;SDS011;33069;51.970;5.892;2023-02-01T15:14:32;29.35;;;14.85;;
47337;SDS011;33069;51.970;5.892;2023-02-01T15:17:15;27.80;;;13.50;;
47337;SDS011;33069;51.970;5.892;2023-02-01T15:19:57;28.13;;;13.20;;
47337;SDS011;33069;51.970;5.892;2023-02-01T15:22:25;26.20;;;14.43;;
47337;SDS011;33069;51.970;5.892;2023-02-01T15:24:56;24.63;;;9.23;;
47337;SDS011;33069;51.970;5.892;2023-02-01T15:27:24;30.45;;;9.00;;
47337;SDS011;33069;51.970;5.892;2023-02-01T15:29:50;20.70;;;9.55;;
47337;SDS011;33069;51.970;5.892;2023-02-01T15:34:56;27.95;;;10.38;;
47337;SDS011;33069;51.970;5.892;2023-02-01T15:37:22;29.98;;;12.23;;
47337;SDS011;33069;51.970;5.892;2023-02-01T15:40:14;26.17;;;10.82;;
47337;SDS011;33069;51.970;5.892;2023-02-01T15:42:51;23.70;;;11.23;;
47337;SDS011;33069;51.970;5.892;2023-02-01T15:45:20;23.13;;;10.82;;
47337;SDS011;33069;51.970;5.892;2023-02-01T15:47:58;23.13;;;12.98;;
47337;SDS011;33069;51.970;5.892;2023-02-01T15:50:24;23.38;;;12.68;;
47337;SDS011;33069;51.970;5.892;2023-02-01T15:52:54;20.10;;;12.90;;
47337;SDS011;33069;51.970;5.892;2023-02-01T15:55:39;24.27;;;13.82;;
47337;SDS011;33069;51.970;5.892;2023-02-01T15:58:07;25.02;;;13.30;;
47337;SDS011;33069;51.970;5.892;2023-02-01T16:00:46;31.65;;;22.13;;
47337;SDS011;33069;51.970;5.892;2023-02-01T16:03:36;28.48;;;11.85;;
47337;SDS011;33069;51.970;5.892;2023-02-01T16:06:27;40.08;;;30.65;;
47337;SDS011;33069;51.970;5.892;2023-02-01T16:11:25;27.40;;;12.55;;
47337;SDS011;33069;51.970;5.892;2023-02-01T16:14:01;24.88;;;12.15;;
47337;SDS011;33069;51.970;5.892;2023-02-01T16:16:27;26.50;;;13.07;;
47337;SDS011;33069;51.970;5.892;2023-02-01T16:18:53;34.83;;;11.32;;
47337;SDS011;33069;51.970;5.892;2023-02-01T16:21:38;26.40;;;11.50;;
47337;SDS011;33069;51.970;5.892;2023-02-01T16:24:04;24.35;;;10.40;;
47337;SDS011;33069;51.970;5.892;2023-02-01T16:26:31;31.23;;;12.02;;
47337;SDS011;33069;51.970;5.892;2023-02-01T16:28:58;29.92;;;13.52;;
47337;SDS011;33069;51.970;5.892;2023-02-01T16:31:27;25.25;;;12.13;;
47337;SDS011;33069;51.970;5.892;2023-02-01T16:33:55;27.60;;;11.85;;
47337;SDS011;33069;51.970;5.892;2023-02-01T16:36:21;30.67;;;10.30;;
47337;SDS011;33069;51.970;5.892;2023-02-01T16:38:47;24.67;;;11.88;;
47337;SDS011;33069;51.970;5.892;2023-02-01T16:41:15;26.23;;;9.10;;
47337;SDS011;33069;51.970;5.892;2023-02-01T16:43:43;31.63;;;11.27;;
47337;SDS011;33069;51.970;5.892;2023-02-01T16:46:14;32.38;;;12.05;;
47337;SDS011;33069;51.970;5.892;2023-02-01T16:48:42;25.17;;;12.40;;
47337;SDS011;33069;51.970;5.892;2023-02-01T16:51:12;24.40;;;11.38;;
47337;SDS011;33069;51.970;5.892;2023-02-01T16:53:39;22.30;;;11.20;;
47337;SDS011;33069;51.970;5.892;2023-02-01T16:56:18;24.63;;;10.68;;
47337;SDS011;33069;51.970;5.892;2023-02-01T16:58:48;31.63;;;11.85;;
47337;SDS011;33069;51.970;5.892;2023-02-01T17:01:15;22.75;;;11.52;;
47337;SDS011;33069;51.970;5.892;2023-02-01T17:03:43;24.65;;;10.85;;
47337;SDS011;33069;51.970;5.892;2023-02-01T17:06:11;28.83;;;12.25;;
47337;SDS011;33069;51.970;5.892;2023-02-01T17:08:44;25.83;;;11.45;;
47337;SDS011;33069;51.970;5.892;2023-02-01T17:11:12;27.35;;;12.57;;
47337;SDS011;33069;51.970;5.892;2023-02-01T17:13:38;33.10;;;11.57;;